Time;durP1;ratioP1;P1;durP2;ratioP2;P2;SDS_P1;SDS_P2;PMS_P1;PMS_P2;Temp;Humidity;BMP_temperature;BMP_pressure;BME280_temperature;BME280_humidity;BME280_pressure;Samples;Min_cycle;Max_cycle;Signal;HPM_P1;HPM_P2
2022/07/15 00:02:24;;;;;;;4.45;1.90;;;;;;;;;;5066093;28;20433;-73
2022/07/15 00:04:53;;;;;;;2.42;1.60;;;;;;;;;;5061722;28;20402;-73
2022/07/15 00:07:22;;;;;;;2.05;1.63;;;;;;;;;;5049591;28;20039;-73
2022/07/15 00:12:53;;;;;;;2.83;1.70;;;;;;;;;;5091651;27;20419;-73
2022/07/15 00:15:32;;;;;;;5.43;2.10;;;;;;;;;;5049494;28;20392;-73
2022/07/15 00:18:09;;;;;;;7.00;1.90;;;;;;;;;;5065844;28;20834;-73
2022/07/15 00:20:38;;;;;;;3.22;1.80;;;;;;;;;;5058223;28;20027;-73
2022/07/15 00:23:07;;;;;;;5.25;1.90;;;;;;;;;;5049784;28;20024;-73
2022/07/15 00:25:45;;;;;;;6.35;1.90;;;;;;;;;;5106418;27;20393;-72
2022/07/15 00:28:13;;;;;;;3.38;1.90;;;;;;;;;;5108965;28;20400;-73
2022/07/15 00:30:52;;;;;;;2.60;1.70;;;;;;;;;;5109676;27;20384;-73
2022/07/15 00:33:21;;;;;;;2.67;1.73;;;;;;;;;;5106707;28;20024;-73
2022/07/15 00:35:49;;;;;;;5.30;1.67;;;;;;;;;;5106149;28;20028;-73
2022/07/15 00:38:18;;;;;;;2.33;1.88;;;;;;;;;;5105984;28;20024;-73
2022/07/15 00:40:48;;;;;;;2.10;1.65;;;;;;;;;;5106418;28;20012;-72
2022/07/15 00:43:27;;;;;;;2.03;1.80;;;;;;;;;;5067802;28;20387;-73
2022/07/15 00:45:56;;;;;;;1.98;1.73;;;;;;;;;;5048895;28;20033;-72
2022/07/15 00:48:24;;;;;;;1.70;1.60;;;;;;;;;;5048778;28;20037;-72
2022/07/15 00:50:53;;;;;;;4.75;2.10;;;;;;;;;;5048280;28;20051;-73
2022/07/15 00:53:22;;;;;;;2.22;1.67;;;;;;;;;;5048561;28;20022;-73
2022/07/15 00:56:00;;;;;;;5.72;2.03;;;;;;;;;;5106778;27;20930;-73
2022/07/15 00:58:40;;;;;;;2.92;1.50;;;;;;;;;;5066566;27;20399;-73
2022/07/15 01:01:10;;;;;;;3.10;1.85;;;;;;;;;;5069219;28;20039;-72
2022/07/15 01:03:50;;;;;;;4.40;2.00;;;;;;;;;;5091523;27;20423;-73
2022/07/15 01:06:19;;;;;;;2.60;1.73;;;;;;;;;;5089912;28;20032;-73
2022/07/15 01:08:48;;;;;;;1.92;1.58;;;;;;;;;;5090457;28;20027;-72
2022/07/15 01:11:17;;;;;;;6.45;1.80;;;;;;;;;;5090162;28;20020;-73
2022/07/15 01:13:46;;;;;;;2.40;1.80;;;;;;;;;;5090199;28;20038;-72
2022/07/15 01:16:24;;;;;;;2.10;1.90;;;;;;;;;;5068204;28;20395;-73
2022/07/15 01:18:53;;;;;;;6.72;1.90;;;;;;;;;;5049414;28;20496;-73
2022/07/15 01:21:34;;;;;;;2.20;1.98;;;;;;;;;;5089893;27;20423;-73
2022/07/15 01:24:10;;;;;;;4.28;2.20;;;;;;;;;;5066274;28;20138;-73
2022/07/15 01:26:40;;;;;;;4.72;2.08;;;;;;;;;;5057733;28;20032;-73
2022/07/15 01:29:08;;;;;;;3.55;1.90;;;;;;;;;;5050119;28;20036;-73
2022/07/15 01:31:37;;;;;;;5.03;1.90;;;;;;;;;;5062332;28;20021;-73
2022/07/15 01:34:06;;;;;;;5.80;1.92;;;;;;;;;;5060886;28;20031;-73
2022/07/15 01:36:34;;;;;;;5.78;1.88;;;;;;;;;;5051819;28;20033;-73
2022/07/15 01:39:03;;;;;;;3.33;2.17;;;;;;;;;;5050198;28;20035;-73
2022/07/15 01:41:32;;;;;;;3.05;1.77;;;;;;;;;;5050478;28;20027;-73
2022/07/15 01:44:01;;;;;;;2.92;1.95;;;;;;;;;;5049004;28;20040;-73
2022/07/15 01:46:30;;;;;;;5.25;2.42;;;;;;;;;;5047822;28;20401;-72
2022/07/15 01:51:55;;;;;;;5.20;1.77;;;;;;;;;;5069138;28;20993;-72
2022/07/15 01:54:24;;;;;;;2.75;2.00;;;;;;;;;;5065752;28;20037;-73
2022/07/15 01:57:05;;;;;;;4.45;2.00;;;;;;;;;;5065966;28;20436;-73
2022/07/15 01:59:33;;;;;;;3.15;1.98;;;;;;;;;;5058676;28;20025;-73
2022/07/15 02:02:02;;;;;;;5.30;2.20;;;;;;;;;;5049234;28;20393;-73
2022/07/15 02:04:31;;;;;;;5.63;2.00;;;;;;;;;;5047205;28;20025;-73
2022/07/15 02:07:00;;;;;;;3.08;2.05;;;;;;;;;;5051582;28;20033;-72
2022/07/15 02:09:36;;;;;;;6.90;1.98;;;;;;;;;;5049607;28;20196;-73
2022/07/15 02:12:06;;;;;;;5.57;2.30;;;;;;;;;;5034684;28;20040;-73
2022/07/15 02:14:43;;;;;;;4.90;2.30;;;;;;;;;;5106455;27;20388;-72
2022/07/15 02:17:12;;;;;;;3.50;2.20;;;;;;;;;;5106421;28;20027;-73
2022/07/15 02:19:49;;;;;;;3.58;2.10;;;;;;;;;;5106019;27;20134;-73
2022/07/15 02:22:18;;;;;;;4.93;2.20;;;;;;;;;;5108752;28;20027;-73
2022/07/15 02:24:46;;;;;;;4.70;2.20;;;;;;;;;;5107600;28;20496;-73
2022/07/15 02:27:15;;;;;;;2.00;1.90;;;;;;;;;;5106476;28;20042;-73
2022/07/15 02:29:52;;;;;;;4.93;2.00;;;;;;;;;;5065912;28;20138;-73
2022/07/15 02:32:20;;;;;;;2.78;1.88;;;;;;;;;;5060165;28;20028;-73
2022/07/15 02:34:59;;;;;;;1.85;1.75;;;;;;;;;;5066174;28;20402;-73
2022/07/15 02:37:28;;;;;;;2.15;1.75;;;;;;;;;;5067556;28;20504;-73
2022/07/15 02:39:56;;;;;;;2.70;2.13;;;;;;;;;;5068128;28;20032;-73
2022/07/15 02:42:25;;;;;;;3.58;2.00;;;;;;;;;;5065746;28;20021;-73
2022/07/15 02:44:54;;;;;;;2.65;1.90;;;;;;;;;;5066994;28;20031;-73
2022/07/15 02:47:23;;;;;;;2.22;2.00;;;;;;;;;;5065446;28;20021;-73
2022/07/15 02:50:05;;;;;;;3.65;1.90;;;;;;;;;;5106592;27;20388;-72
2022/07/15 02:52:44;;;;;;;3.30;2.08;;;;;;;;;;5106400;27;20397;-72
2022/07/15 02:55:13;;;;;;;4.72;2.17;;;;;;;;;;5109119;28;20028;-72
2022/07/15 02:57:54;;;;;;;3.50;2.33;;;;;;;;;;5109746;27;20388;-73
2022/07/15 03:00:32;;;;;;;2.35;2.00;;;;;;;;;;5049533;28;20139;-73
2022/07/15 03:03:01;;;;;;;2.45;2.25;;;;;;;;;;5048472;28;20025;-73
2022/07/15 03:05:30;;;;;;;2.83;2.08;;;;;;;;;;5048631;28;20044;-73
2022/07/15 03:07:59;;;;;;;2.00;1.80;;;;;;;;;;5048838;28;20389;-72
2022/07/15 03:10:35;;;;;;;2.25;2.05;;;;;;;;;;5107292;27;20162;-73
2022/07/15 03:13:04;;;;;;;3.83;2.28;;;;;;;;;;5089436;28;20039;-73
2022/07/15 03:15:43;;;;;;;1.92;1.80;;;;;;;;;;5068680;28;20420;-72
2022/07/15 03:18:12;;;;;;;7.28;2.38;;;;;;;;;;5053381;28;20036;-73
2022/07/15 03:20:48;;;;;;;3.53;2.30;;;;;;;;;;5098951;27;1328388;-73
2022/07/15 03:23:17;;;;;;;6.50;2.40;;;;;;;;;;5129823;27;20037;-72
2022/07/15 03:25:46;;;;;;;3.97;1.92;;;;;;;;;;5129585;28;20391;-72
2022/07/15 03:28:14;;;;;;;4.95;2.60;;;;;;;;;;5129771;27;20034;-72
2022/07/15 03:30:43;;;;;;;2.17;1.98;;;;;;;;;;5129011;28;20038;-72
2022/07/15 03:33:21;;;;;;;3.70;2.20;;;;;;;;;;5106449;27;20461;-73
2022/07/15 03:35:50;;;;;;;3.63;2.80;;;;;;;;;;5106272;28;20034;-73
2022/07/15 03:38:19;;;;;;;3.20;2.00;;;;;;;;;;5106136;28;20385;-73
2022/07/15 03:40:48;;;;;;;2.15;1.88;;;;;;;;;;5106467;28;20016;-73
2022/07/15 03:43:16;;;;;;;3.35;2.50;;;;;;;;;;5108624;28;20387;-73
2022/07/15 03:45:53;;;;;;;4.60;2.13;;;;;;;;;;5068869;28;20672;-72
2022/07/15 03:48:22;;;;;;;3.42;2.17;;;;;;;;;;5052150;28;20026;-73
2022/07/15 03:50:51;;;;;;;2.42;2.00;;;;;;;;;;5050224;28;20021;-73
2022/07/15 03:53:20;;;;;;;2.75;2.22;;;;;;;;;;5050697;28;20025;-72
2022/07/15 03:55:48;;;;;;;3.65;2.10;;;;;;;;;;5047388;28;20029;-72
2022/07/15 03:58:17;;;;;;;2.80;2.15;;;;;;;;;;5050828;28;20036;-73
2022/07/15 04:00:46;;;;;;;2.30;2.10;;;;;;;;;;5049721;28;20032;-73
2022/07/15 04:03:16;;;;;;;5.28;2.13;;;;;;;;;;5049769;28;20025;-72
2022/07/15 04:05:53;;;;;;;3.67;2.13;;;;;;;;;;5100761;27;20393;-72
2022/07/15 04:08:22;;;;;;;5.50;2.33;;;;;;;;;;5089238;28;20024;-72
2022/07/15 04:10:50;;;;;;;4.43;2.50;;;;;;;;;;5088875;28;20027;-72
2022/07/15 04:13:29;;;;;;;3.83;2.00;;;;;;;;;;5067626;28;21218;-73
2022/07/15 04:15:58;;;;;;;6.13;2.25;;;;;;;;;;5049133;28;20036;-73
2022/07/15 04:18:27;;;;;;;5.18;2.50;;;;;;;;;;5048945;28;20029;-73
2022/07/15 04:20:55;;;;;;;3.75;2.15;;;;;;;;;;5048637;28;20516;-73
2022/07/15 04:23:25;;;;;;;3.75;2.10;;;;;;;;;;5048620;28;20014;-73
2022/07/15 04:26:03;;;;;;;4.47;2.38;;;;;;;;;;5066025;28;20399;-72
2022/07/15 04:28:42;;;;;;;6.35;2.50;;;;;;;;;;5106310;27;20445;-73
2022/07/15 04:31:11;;;;;;;5.22;2.58;;;;;;;;;;5109687;28;20030;-72
2022/07/15 04:33:40;;;;;;;3.75;2.35;;;;;;;;;;5107264;28;20035;-73
2022/07/15 04:36:08;;;;;;;10.15;2.22;;;;;;;;;;5106224;28;20392;-73
2022/07/15 04:38:37;;;;;;;3.47;2.63;;;;;;;;;;5106144;28;20034;-73
2022/07/15 04:41:06;;;;;;;9.50;2.65;;;;;;;;;;5107568;28;20496;-73
2022/07/15 04:43:35;;;;;;;8.63;2.45;;;;;;;;;;5106425;28;20012;-72
2022/07/15 04:46:03;;;;;;;6.07;2.60;;;;;;;;;;5109420;28;20057;-73
2022/07/15 04:51:30;;;;;;;4.07;2.30;;;;;;;;;;5090892;27;20397;-72
2022/07/15 04:53:59;;;;;;;3.75;2.35;;;;;;;;;;5090221;28;20500;-73
2022/07/15 04:56:28;;;;;;;6.97;2.50;;;;;;;;;;5090078;28;20028;-73
2022/07/15 04:58:56;;;;;;;4.85;2.58;;;;;;;;;;5089790;28;20008;-72
2022/07/15 05:01:25;;;;;;;7.25;2.55;;;;;;;;;;5090109;28;20028;-73
2022/07/15 05:03:54;;;;;;;4.82;2.50;;;;;;;;;;5087822;28;20041;-73
2022/07/15 05:06:30;;;;;;;7.15;2.78;;;;;;;;;;5069497;27;20657;-73
2022/07/15 05:08:59;;;;;;;9.73;2.60;;;;;;;;;;5065852;28;20029;-72
2022/07/15 05:11:28;;;;;;;4.28;2.35;;;;;;;;;;5065863;28;20055;-72
2022/07/15 05:13:57;;;;;;;5.95;2.40;;;;;;;;;;5064435;28;20037;-73
2022/07/15 05:16:35;;;;;;;3.08;2.15;;;;;;;;;;5107183;27;20913;-72
2022/07/15 05:19:04;;;;;;;4.43;2.10;;;;;;;;;;5089337;28;20034;-72
2022/07/15 05:21:33;;;;;;;4.43;2.55;;;;;;;;;;5088647;28;20396;-72
2022/07/15 05:24:02;;;;;;;3.08;2.45;;;;;;;;;;5088924;28;20021;-73
2022/07/15 05:26:30;;;;;;;2.40;2.20;;;;;;;;;;5088230;28;20031;-72
2022/07/15 05:28:59;;;;;;;4.20;2.50;;;;;;;;;;5088846;28;20028;-72
2022/07/15 05:31:28;;;;;;;4.38;2.30;;;;;;;;;;5088645;28;20505;-72
2022/07/15 05:33:57;;;;;;;5.68;2.40;;;;;;;;;;5089061;28;20499;-73
2022/07/15 05:36:25;;;;;;;3.33;1.90;;;;;;;;;;5088293;28;20040;-73
2022/07/15 05:39:02;;;;;;;3.92;2.65;;;;;;;;;;5066087;28;20138;-72
2022/07/15 05:41:32;;;;;;;2.65;2.35;;;;;;;;;;5058855;28;20478;-72
2022/07/15 05:44:11;;;;;;;2.63;2.42;;;;;;;;;;5065946;28;20391;-72
2022/07/15 05:46:50;;;;;;;2.33;2.13;;;;;;;;;;5086542;27;20391;-73
2022/07/15 05:49:27;;;;;;;5.43;2.40;;;;;;;;;;5108443;27;20380;-73
2022/07/15 05:52:04;;;;;;;2.38;2.15;;;;;;;;;;5109666;27;20128;-73
2022/07/15 05:54:32;;;;;;;6.68;2.42;;;;;;;;;;5106163;28;20042;-73
2022/07/15 05:57:13;;;;;;;2.45;2.20;;;;;;;;;;5105910;27;20400;-73
2022/07/15 05:59:51;;;;;;;5.78;2.28;;;;;;;;;;5085964;28;20335;-73
2022/07/15 06:02:30;;;;;;;3.67;2.08;;;;;;;;;;5106470;27;20789;-73
2022/07/15 06:04:59;;;;;;;4.65;2.33;;;;;;;;;;5102158;28;20028;-73
2022/07/15 06:07:28;;;;;;;3.35;2.45;;;;;;;;;;5089102;28;20040;-73
2022/07/15 06:10:05;;;;;;;3.22;2.45;;;;;;;;;;5109740;27;20210;-73
2022/07/15 06:12:34;;;;;;;6.30;2.40;;;;;;;;;;5106291;28;20028;-73
2022/07/15 06:15:03;;;;;;;2.78;2.25;;;;;;;;;;5105211;28;20028;-72
2022/07/15 06:17:41;;;;;;;9.85;2.50;;;;;;;;;;5106247;27;20395;-73
2022/07/15 06:20:11;;;;;;;3.30;2.28;;;;;;;;;;5102129;28;20038;-73
2022/07/15 06:22:39;;;;;;;8.50;2.93;;;;;;;;;;5070214;28;20017;-73
2022/07/15 06:25:08;;;;;;;5.20;2.50;;;;;;;;;;5093002;28;20039;-73
2022/07/15 06:27:37;;;;;;;5.43;2.60;;;;;;;;;;5092139;28;20032;-73
2022/07/15 06:30:07;;;;;;;2.95;2.47;;;;;;;;;;5090541;28;20522;-73
2022/07/15 06:32:44;;;;;;;4.88;2.60;;;;;;;;;;5084033;27;20402;-73
2022/07/15 06:35:13;;;;;;;7.72;2.60;;;;;;;;;;5085842;28;20035;-73
2022/07/15 06:37:49;;;;;;;8.80;2.50;;;;;;;;;;5107635;27;20133;-73
2022/07/15 06:40:26;;;;;;;6.38;2.70;;;;;;;;;;5107728;27;20182;-73
2022/07/15 06:42:55;;;;;;;4.20;2.42;;;;;;;;;;5089173;28;20038;-73
2022/07/15 06:45:33;;;;;;;10.07;2.38;;;;;;;;;;5089301;27;20386;-73
2022/07/15 06:48:02;;;;;;;2.40;2.00;;;;;;;;;;5088839;28;20023;-61
2022/07/15 06:50:31;;;;;;;3.63;2.08;;;;;;;;;;5088508;28;20035;-61
2022/07/15 06:52:59;;;;;;;7.10;2.40;;;;;;;;;;5088872;28;20028;-61
2022/07/15 06:55:28;;;;;;;3.20;2.15;;;;;;;;;;5088168;28;20027;-61
2022/07/15 06:57:57;;;;;;;3.47;2.47;;;;;;;;;;5089596;28;20042;-61
2022/07/15 07:00:34;;;;;;;5.03;2.53;;;;;;;;;;5047847;28;20124;-61
2022/07/15 07:03:03;;;;;;;4.95;2.10;;;;;;;;;;5048655;28;20025;-61
2022/07/15 07:05:31;;;;;;;7.25;2.80;;;;;;;;;;5048511;28;20036;-61
2022/07/15 07:08:00;;;;;;;7.93;2.63;;;;;;;;;;5048721;28;20029;-61
2022/07/15 07:10:29;;;;;;;6.45;2.65;;;;;;;;;;5048613;28;20524;-61
2022/07/15 07:13:05;;;;;;;2.42;2.00;;;;;;;;;;5109660;27;20529;-61
2022/07/15 07:15:42;;;;;;;6.05;2.45;;;;;;;;;;5068887;28;20135;-61
2022/07/15 07:18:11;;;;;;;5.35;2.60;;;;;;;;;;5053557;28;20389;-61
2022/07/15 07:20:43;;;;;;;5.97;2.83;;;;;;;;;;5050463;28;20383;-62
2022/07/15 07:23:12;;;;;;;6.72;2.90;;;;;;;;;;5049656;28;20489;-61
2022/07/15 07:25:41;;;;;;;6.88;2.92;;;;;;;;;;5030412;28;20021;-61
2022/07/15 07:28:19;;;;;;;9.05;3.33;;;;;;;;;;5088460;27;20786;-61
2022/07/15 07:30:49;;;;;;;6.38;2.97;;;;;;;;;;5069394;28;20025;-61
2022/07/15 07:33:26;;;;;;;5.47;3.17;;;;;;;;;;5066114;28;20441;-61
2022/07/15 07:35:54;;;;;;;10.35;3.22;;;;;;;;;;5055848;28;20520;-61
2022/07/15 07:38:23;;;;;;;2.88;2.55;;;;;;;;;;5050113;28;20039;-61
2022/07/15 07:40:53;;;;;;;9.73;3.13;;;;;;;;;;5046188;28;20379;-61
2022/07/15 07:43:21;;;;;;;10.00;3.17;;;;;;;;;;5050311;28;20471;-61
2022/07/15 07:45:50;;;;;;;6.18;2.72;;;;;;;;;;5053308;28;20037;-62
2022/07/15 07:48:19;;;;;;;3.78;2.47;;;;;;;;;;5051775;28;20031;-61
2022/07/15 07:50:48;;;;;;;5.05;2.50;;;;;;;;;;5050221;28;20036;-61
2022/07/15 07:53:17;;;;;;;8.10;3.35;;;;;;;;;;5048990;28;20493;-61
2022/07/15 07:55:45;;;;;;;5.50;3.30;;;;;;;;;;5060937;28;20030;-61
2022/07/15 07:58:16;;;;;;;5.80;2.85;;;;;;;;;;5051503;28;20025;-61
2022/07/15 08:00:45;;;;;;;;;;;;;;;;;;5053018;28;20032;-61
2022/07/15 08:03:15;;;;;;;4.85;2.97;;;;;;;;;;5050046;28;19905;-61
2022/07/15 08:05:44;;;;;;;10.73;2.63;;;;;;;;;;5049294;28;20022;-60
2022/07/15 08:08:14;;;;;;;3.70;2.50;;;;;;;;;;5049876;28;20032;-61
2022/07/15 08:10:48;;;;;;;3.60;2.42;;;;;;;;;;5030391;28;20044;-61
2022/07/15 08:13:17;;;;;;;7.90;2.10;;;;;;;;;;5050948;28;20049;-61
2022/07/15 08:15:56;;;;;;;4.97;2.83;;;;;;;;;;5068907;28;20425;-61
2022/07/15 08:18:33;;;;;;;6.07;3.03;;;;;;;;;;5049504;28;20466;-61
2022/07/15 08:21:03;;;;;;;6.00;2.40;;;;;;;;;;5048438;28;20025;-61
2022/07/15 08:23:32;;;;;;;5.07;2.70;;;;;;;;;;5048540;28;20029;-60
2022/07/15 08:26:01;;;;;;;5.63;2.42;;;;;;;;;;5048633;28;20393;-60
2022/07/15 08:28:29;;;;;;;3.80;2.60;;;;;;;;;;5048833;28;20025;-61
2022/07/15 08:30:58;;;;;;;4.28;2.55;;;;;;;;;;5049035;28;20402;-61
2022/07/15 08:33:27;;;;;;;5.35;2.38;;;;;;;;;;5048512;28;20516;-62
2022/07/15 08:36:03;;;;;;;5.50;2.60;;;;;;;;;;5065568;28;20134;-61
2022/07/15 08:38:32;;;;;;;6.88;2.13;;;;;;;;;;5058879;28;20503;-62
2022/07/15 08:41:01;;;;;;;5.10;2.65;;;;;;;;;;5047835;28;20035;-61
2022/07/15 08:43:40;;;;;;;7.03;2.63;;;;;;;;;;5066267;28;20383;-73
2022/07/15 08:46:09;;;;;;;4.72;2.55;;;;;;;;;;5049160;28;20033;-73
2022/07/15 08:48:38;;;;;;;5.03;2.20;;;;;;;;;;5048562;28;20510;-73
2022/07/15 08:51:15;;;;;;;4.75;2.22;;;;;;;;;;5065701;28;20958;-73
2022/07/15 08:53:44;;;;;;;7.63;2.50;;;;;;;;;;5049298;28;20025;-73
2022/07/15 08:56:13;;;;;;;4.22;2.45;;;;;;;;;;5050158;28;20029;-73
2022/07/15 08:58:49;;;;;;;5.00;2.50;;;;;;;;;;5066168;28;20131;-73
2022/07/15 09:01:18;;;;;;;10.23;2.50;;;;;;;;;;5067078;28;20035;-72
2022/07/15 09:03:47;;;;;;;5.72;2.20;;;;;;;;;;5066212;28;20031;-72
2022/07/15 09:06:32;;;;;;;4.38;2.00;;;;;;;;;;5066037;28;20421;-73
2022/07/15 09:09:21;;;;;;;6.03;2.05;;;;;;;;;;5055124;28;20039;-73
2022/07/15 09:12:03;;;;;;;7.22;1.90;;;;;;;;;;5126909;27;20108;-72
2022/07/15 09:14:45;;;;;;;3.55;1.70;;;;;;;;;;5107894;27;20376;-71
2022/07/15 09:17:23;;;;;;;3.53;2.15;;;;;;;;;;5106619;27;20996;-70
2022/07/15 09:20:07;;;;;;;4.32;2.00;;;;;;;;;;5065599;28;20396;-73
2022/07/15 09:22:50;;;;;;;6.40;1.67;;;;;;;;;;5066602;28;20036;-73
2022/07/15 09:25:19;;;;;;;6.30;1.85;;;;;;;;;;5065579;28;20043;-73
2022/07/15 09:27:48;;;;;;;1.92;1.73;;;;;;;;;;5066589;28;20036;-72
2022/07/15 09:33:43;;;;;;;8.43;1.92;;;;;;;;;;5105954;27;20108;-71
2022/07/15 09:36:25;;;;;;;7.28;1.90;;;;;;;;;;5082765;27;20137;-71
2022/07/15 09:39:04;;;;;;;4.18;1.67;;;;;;;;;;5084901;27;20401;-70
2022/07/15 09:41:36;;;;;;;4.35;1.65;;;;;;;;;;5085299;28;20025;-71
2022/07/15 09:44:05;;;;;;;2.92;1.50;;;;;;;;;;5086420;28;20026;-71
2022/07/15 09:46:49;;;;;;;4.70;1.65;;;;;;;;;;5106348;27;20392;-69
2022/07/15 09:49:26;;;;;;;4.50;1.55;;;;;;;;;;5108089;27;20418;-70
2022/07/15 09:51:55;;;;;;;1.88;1.70;;;;;;;;;;5089308;28;20036;-70
2022/07/15 09:54:30;;;;;;;5.22;1.95;;;;;;;;;;5088696;28;20426;-71
2022/07/15 09:57:00;;;;;;;4.97;1.90;;;;;;;;;;5084048;28;20035;-71
2022/07/15 09:59:37;;;;;;;5.85;1.60;;;;;;;;;;5105375;27;20384;-70
2022/07/15 10:02:06;;;;;;;5.32;1.45;;;;;;;;;;5101979;28;20020;-71
2022/07/15 10:04:34;;;;;;;2.63;1.70;;;;;;;;;;5087319;28;20029;-71
2022/07/15 10:07:13;;;;;;;2.05;1.30;;;;;;;;;;5068863;28;20192;-71
2022/07/15 10:09:42;;;;;;;5.03;1.60;;;;;;;;;;5067549;28;20482;-71
2022/07/15 10:12:16;;;;;;;1.25;1.10;;;;;;;;;;5065851;28;20035;-71
2022/07/15 10:15:14;;;;;;;7.40;1.40;;;;;;;;;;5065744;28;20395;-71
2022/07/15 10:18:22;;;;;;;3.95;1.02;;;;;;;;;;5085824;27;20385;-71
2022/07/15 10:21:08;;;;;;;2.78;1.10;;;;;;;;;;5106093;27;20617;-70
2022/07/15 10:23:57;;;;;;;5.38;1.55;;;;;;;;;;5085941;28;20393;-71
2022/07/15 10:26:38;;;;;;;1.58;1.10;;;;;;;;;;5084212;28;20026;-71
2022/07/15 10:29:17;;;;;;;7.93;1.10;;;;;;;;;;5106265;27;20400;-71
2022/07/15 10:31:55;;;;;;;1.23;0.90;;;;;;;;;;5107678;28;20024;-71
2022/07/15 10:34:29;;;;;;;1.23;0.82;;;;;;;;;;5108770;28;20038;-71
2022/07/15 10:36:59;;;;;;;1.10;0.80;;;;;;;;;;5108297;28;20030;-71
2022/07/15 10:39:57;;;;;;;1.73;1.00;;;;;;;;;;5046942;28;20396;-71
2022/07/15 10:42:25;;;;;;;0.90;0.90;;;;;;;;;;5031416;28;20032;-71
2022/07/15 10:45:01;;;;;;;4.05;0.90;;;;;;;;;;5030475;28;20022;-71
2022/07/15 10:47:30;;;;;;;4.28;1.10;;;;;;;;;;5030452;28;20029;-71
2022/07/15 10:49:58;;;;;;;1.77;1.13;;;;;;;;;;5028418;28;20030;-71
2022/07/15 10:52:28;;;;;;;2.50;0.90;;;;;;;;;;5029544;28;20494;-71
2022/07/15 10:55:05;;;;;;;5.78;1.10;;;;;;;;;;5109977;27;20445;-71
2022/07/15 10:57:40;;;;;;;1.13;0.80;;;;;;;;;;5106120;28;20038;-71
2022/07/15 11:00:29;;;;;;;1.13;0.80;;;;;;;;;;5106250;28;20024;-71
2022/07/15 11:03:10;;;;;;;4.80;1.08;;;;;;;;;;5065693;27;20395;-71
2022/07/15 11:06:02;;;;;;;4.70;1.60;;;;;;;;;;5058088;28;20103;-70
2022/07/15 11:08:44;;;;;;;1.55;1.00;;;;;;;;;;5066155;28;20841;-71
2022/07/15 11:11:16;;;;;;;5.22;1.00;;;;;;;;;;5061248;28;20025;-71
2022/07/15 11:13:45;;;;;;;4.75;0.90;;;;;;;;;;5031193;28;20029;-71
2022/07/15 11:16:25;;;;;;;2.45;0.90;;;;;;;;;;5088011;27;20411;-71
2022/07/15 11:18:55;;;;;;;4.40;1.35;;;;;;;;;;5067131;28;20021;-71
2022/07/15 11:21:33;;;;;;;2.05;0.90;;;;;;;;;;5089538;27;20389;-71
2022/07/15 11:24:02;;;;;;;1.48;1.00;;;;;;;;;;5085812;28;20032;-71
2022/07/15 11:26:46;;;;;;;1.02;0.93;;;;;;;;;;5085913;28;20038;-71
2022/07/15 11:29:23;;;;;;;0.73;0.73;;;;;;;;;;5065630;28;20802;-71
2022/07/15 11:31:52;;;;;;;2.85;0.90;;;;;;;;;;5061714;28;20029;-71
2022/07/15 11:34:21;;;;;;;3.67;1.33;;;;;;;;;;5050583;28;20033;-71
2022/07/15 11:36:58;;;;;;;5.03;0.90;;;;;;;;;;5051259;28;20035;-71
2022/07/15 11:39:30;;;;;;;1.35;1.10;;;;;;;;;;5050445;28;20040;-71
2022/07/15 11:44:54;;;;;;;5.15;1.02;;;;;;;;;;5065844;28;20911;-71
2022/07/15 11:47:23;;;;;;;1.98;1.20;;;;;;;;;;5060881;28;20497;-71
2022/07/15 11:50:00;;;;;;;3.90;1.00;;;;;;;;;;5065984;28;20135;-71
2022/07/15 11:52:38;;;;;;;3.45;1.13;;;;;;;;;;5107100;27;20390;-71
2022/07/15 11:55:14;;;;;;;1.23;0.93;;;;;;;;;;5069060;28;20135;-71
2022/07/15 11:57:51;;;;;;;1.10;1.00;;;;;;;;;;5049028;28;20033;-70
2022/07/15 12:00:29;;;;;;;2.90;0.80;;;;;;;;;;5048572;28;20025;-71
2022/07/15 12:03:07;;;;;;;2.10;0.73;;;;;;;;;;5065955;28;20394;-71
2022/07/15 12:05:59;;;;;;;0.70;0.70;;;;;;;;;;5084673;27;20451;-70
2022/07/15 12:08:35;;;;;;;4.38;1.17;;;;;;;;;;5085092;28;20016;-70
2022/07/15 12:11:21;;;;;;;1.73;0.80;;;;;;;;;;5065855;28;20444;-69
2022/07/15 12:14:00;;;;;;;3.95;1.00;;;;;;;;;;5106015;27;20447;-71
2022/07/15 12:16:34;;;;;;;5.80;1.30;;;;;;;;;;5108070;28;20032;-71
2022/07/15 12:19:23;;;;;;;0.95;0.93;;;;;;;;;;5107524;28;20028;-71
2022/07/15 12:22:05;;;;;;;4.82;1.00;;;;;;;;;;5109683;27;20119;-70
2022/07/15 12:24:51;;;;;;;3.70;0.90;;;;;;;;;;5090588;28;20035;-71
2022/07/15 12:27:34;;;;;;;3.25;0.80;;;;;;;;;;5105985;27;20388;-71
2022/07/15 12:30:07;;;;;;;2.15;0.70;;;;;;;;;;5107348;28;20024;-71
2022/07/15 12:32:44;;;;;;;1.67;0.70;;;;;;;;;;5066005;28;21004;-71
2022/07/15 12:35:14;;;;;;;2.63;0.97;;;;;;;;;;5062250;28;20033;-71
2022/07/15 12:37:52;;;;;;;2.45;0.80;;;;;;;;;;5066181;28;20789;-71
2022/07/15 12:40:31;;;;;;;1.20;0.82;;;;;;;;;;5107911;27;20395;-71
2022/07/15 12:43:00;;;;;;;2.25;0.88;;;;;;;;;;5088782;28;20030;-71
2022/07/15 12:45:36;;;;;;;1.90;0.90;;;;;;;;;;5088348;28;20418;-71
2022/07/15 12:48:10;;;;;;;1.80;1.20;;;;;;;;;;5089117;28;20032;-71
2022/07/15 12:50:51;;;;;;;4.63;1.00;;;;;;;;;;5089078;28;20378;-71
2022/07/15 12:53:20;;;;;;;2.67;0.90;;;;;;;;;;5087661;28;20028;-71
2022/07/15 12:56:00;;;;;;;1.17;0.80;;;;;;;;;;5065879;28;20427;-71
2022/07/15 12:58:37;;;;;;;3.17;0.98;;;;;;;;;;5107339;27;20447;-71
2022/07/15 13:01:16;;;;;;;2.72;1.00;;;;;;;;;;5089711;28;20032;-71
2022/07/15 13:03:46;;;;;;;1.63;0.80;;;;;;;;;;5088463;28;20035;-71
2022/07/15 13:06:24;;;;;;;4.18;0.90;;;;;;;;;;5106346;27;20973;-71
2022/07/15 13:08:53;;;;;;;1.92;0.98;;;;;;;;;;5107865;28;20058;-71
2022/07/15 13:11:24;;;;;;;2.53;0.88;;;;;;;;;;5106039;28;20030;-71
2022/07/15 13:13:53;;;;;;;2.47;0.95;;;;;;;;;;5106373;28;20036;-71
2022/07/15 13:16:32;;;;;;;2.10;1.00;;;;;;;;;;5087534;27;20389;-71
2022/07/15 13:19:01;;;;;;;1.55;1.00;;;;;;;;;;5069040;28;20029;-71
2022/07/15 13:21:30;;;;;;;2.17;1.30;;;;;;;;;;5068070;28;20055;-71
2022/07/15 13:23:58;;;;;;;3.58;1.13;;;;;;;;;;5068464;28;20023;-71
2022/07/15 13:26:27;;;;;;;2.60;1.20;;;;;;;;;;5068151;28;20025;-71
2022/07/15 13:28:56;;;;;;;2.38;0.90;;;;;;;;;;5067628;28;20025;-71
2022/07/15 13:31:25;;;;;;;2.35;1.05;;;;;;;;;;5067713;28;20025;-71
2022/07/15 13:33:53;;;;;;;1.30;1.13;;;;;;;;;;5068900;28;20036;-71
2022/07/15 13:36:22;;;;;;;3.60;1.05;;;;;;;;;;5068171;28;20029;-71
2022/07/15 13:38:51;;;;;;;1.33;1.00;;;;;;;;;;5068352;28;20017;-71
2022/07/15 13:41:20;;;;;;;2.38;1.10;;;;;;;;;;5067923;28;20029;-71
2022/07/15 13:43:58;;;;;;;1.60;1.00;;;;;;;;;;5106435;27;20786;-71
2022/07/15 13:46:27;;;;;;;5.63;0.85;;;;;;;;;;5107584;28;20028;-71
2022/07/15 13:48:56;;;;;;;1.05;0.98;;;;;;;;;;5109424;28;20481;-71
2022/07/15 13:51:25;;;;;;;4.80;1.20;;;;;;;;;;5106455;28;20024;-71
2022/07/15 13:53:54;;;;;;;1.42;0.90;;;;;;;;;;5102183;28;20058;-71
2022/07/15 13:56:32;;;;;;;0.98;0.98;;;;;;;;;;5106347;27;20745;-71
2022/07/15 13:59:10;;;;;;;3.25;1.13;;;;;;;;;;5066096;28;20387;-71
2022/07/15 14:01:39;;;;;;;2.50;1.02;;;;;;;;;;5066334;28;20027;-71
2022/07/15 14:04:07;;;;;;;1.10;0.90;;;;;;;;;;5064290;28;20404;-71
2022/07/15 14:06:36;;;;;;;4.45;1.15;;;;;;;;;;5067460;28;20025;-71
2022/07/15 14:09:05;;;;;;;3.30;1.20;;;;;;;;;;5065616;28;20033;-71
2022/07/15 14:11:43;;;;;;;1.63;1.10;;;;;;;;;;5086003;28;20389;-71
2022/07/15 14:14:12;;;;;;;2.63;1.08;;;;;;;;;;5081727;28;20499;-71
2022/07/15 14:16:41;;;;;;;2.67;0.93;;;;;;;;;;5066140;28;20021;-71
2022/07/15 14:19:09;;;;;;;4.75;1.10;;;;;;;;;;5081692;28;20025;-71
2022/07/15 14:21:48;;;;;;;3.92;1.20;;;;;;;;;;5051368;28;20893;-70
2022/07/15 14:24:18;;;;;;;2.92;1.00;;;;;;;;;;5049876;28;20035;-70
2022/07/15 14:26:57;;;;;;;5.45;1.00;;;;;;;;;;5087535;27;20966;-71
2022/07/15 14:29:37;;;;;;;0.80;0.80;;;;;;;;;;5126776;27;20891;-71
2022/07/15 14:32:05;;;;;;;2.72;1.00;;;;;;;;;;5127013;28;20023;-71
2022/07/15 14:34:34;;;;;;;2.58;0.95;;;;;;;;;;5108680;28;20042;-71
2022/07/15 14:37:03;;;;;;;5.43;1.00;;;;;;;;;;5129531;28;20031;-71
2022/07/15 14:39:31;;;;;;;1.25;0.90;;;;;;;;;;5126210;28;20765;-71
2022/07/15 14:42:00;;;;;;;3.58;0.90;;;;;;;;;;5126497;28;20402;-70
2022/07/15 14:44:29;;;;;;;1.80;0.93;;;;;;;;;;5126387;28;20038;-71
2022/07/15 14:47:05;;;;;;;1.10;1.00;;;;;;;;;;5066137;28;20130;-70
2022/07/15 14:49:42;;;;;;;1.98;1.05;;;;;;;;;;5106359;27;20132;-71
2022/07/15 14:52:11;;;;;;;2.78;1.05;;;;;;;;;;5109268;28;20035;-71
2022/07/15 14:54:40;;;;;;;2.70;0.88;;;;;;;;;;5106803;28;20395;-71
2022/07/15 14:57:18;;;;;;;3.10;0.90;;;;;;;;;;5106588;27;20392;-71
2022/07/15 14:59:47;;;;;;;3.05;0.95;;;;;;;;;;5106161;28;20058;-71
2022/07/15 15:02:16;;;;;;;2.65;0.88;;;;;;;;;;5104612;28;20034;-71
2022/07/15 15:04:44;;;;;;;3.55;0.90;;;;;;;;;;5107676;28;20033;-71
2022/07/15 15:07:13;;;;;;;1.70;0.93;;;;;;;;;;5108815;28;20477;-71
2022/07/15 15:09:50;;;;;;;1.88;1.10;;;;;;;;;;5051086;28;20575;-70
2022/07/15 15:12:19;;;;;;;3.13;1.10;;;;;;;;;;5049835;28;20029;-71
2022/07/15 15:14:57;;;;;;;1.48;1.00;;;;;;;;;;5066131;28;20931;-70
2022/07/15 15:17:26;;;;;;;1.27;0.70;;;;;;;;;;5060091;28;20028;-71
2022/07/15 15:19:54;;;;;;;1.13;0.80;;;;;;;;;;5048053;28;20026;-70
2022/07/15 15:22:23;;;;;;;2.63;0.88;;;;;;;;;;5047019;28;20035;-70
2022/07/15 15:25:03;;;;;;;2.88;0.98;;;;;;;;;;5109422;27;20384;-70
2022/07/15 15:27:40;;;;;;;1.90;0.80;;;;;;;;;;5070097;28;20395;-69
2022/07/15 15:30:09;;;;;;;2.78;0.90;;;;;;;;;;5070101;28;20021;-69
2022/07/15 15:32:38;;;;;;;3.10;1.10;;;;;;;;;;5069847;28;20035;-70